createdAt,value
2018-05-06T00:02:19.536Z,16.20
2018-05-06T00:04:47.199Z,16.10
2018-05-06T00:07:14.830Z,16.10
2018-05-06T00:09:42.474Z,16.00
2018-05-06T00:12:10.188Z,16.00
2018-05-06T00:14:37.937Z,15.90
2018-05-06T00:17:05.560Z,15.90
2018-05-06T00:19:33.985Z,15.90
2018-05-06T00:22:01.597Z,15.80
2018-05-06T00:24:30.004Z,15.80
2018-05-06T00:26:57.630Z,15.80
2018-05-06T00:29:25.332Z,15.80
2018-05-06T00:31:52.950Z,15.70
2018-05-06T00:34:21.366Z,15.70
2018-05-06T00:36:49.023Z,15.60
2018-05-06T00:39:16.677Z,15.70
2018-05-06T00:41:45.113Z,15.70
2018-05-06T00:44:12.868Z,15.60
2018-05-06T00:46:40.490Z,15.70
2018-05-06T00:49:08.137Z,15.70
2018-05-06T00:51:35.767Z,15.60
2018-05-06T00:54:15.594Z,15.60
2018-05-06T00:56:43.204Z,15.50
2018-05-06T00:59:11.625Z,15.50
2018-05-06T01:01:39.228Z,15.50
2018-05-06T01:04:06.839Z,15.50
2018-05-06T01:06:34.479Z,15.50
2018-05-06T01:09:02.096Z,15.40
2018-05-06T01:11:30.038Z,15.40
2018-05-06T01:13:57.654Z,15.30
2018-05-06T01:16:26.085Z,15.30
2018-05-06T01:18:53.754Z,15.20
2018-05-06T01:21:21.414Z,15.20
2018-05-06T01:23:49.279Z,15.20
2018-05-06T01:26:16.928Z,15.10
2018-05-06T01:28:44.555Z,15.10
2018-05-06T01:31:12.970Z,15.10
2018-05-06T01:33:40.572Z,15.10
2018-05-06T01:36:08.212Z,15.10
2018-05-06T01:38:35.824Z,15.10
2018-05-06T01:41:04.228Z,15.00
2018-05-06T01:43:31.841Z,15.00
2018-05-06T01:46:00.254Z,15.00
2018-05-06T01:48:27.857Z,14.90
2018-05-06T01:50:55.512Z,14.90
2018-05-06T01:53:23.136Z,14.90
2018-05-06T01:55:50.741Z,14.80
2018-05-06T01:58:18.384Z,14.80
2018-05-06T02:00:46.020Z,14.70
2018-05-06T02:03:13.666Z,14.60
2018-05-06T02:05:42.101Z,14.60
2018-05-06T02:08:09.751Z,14.50
2018-05-06T02:10:37.357Z,14.50
2018-05-06T02:13:05.202Z,14.50
2018-05-06T02:15:33.009Z,14.50
2018-05-06T02:18:01.408Z,14.50
2018-05-06T02:20:29.065Z,14.50
2018-05-06T02:22:56.707Z,14.50
2018-05-06T02:25:25.088Z,14.50
2018-05-06T02:27:53.496Z,14.50
2018-05-06T02:30:21.197Z,14.40
2018-05-06T02:32:48.838Z,14.50
2018-05-06T02:35:16.451Z,14.50
2018-05-06T02:37:44.128Z,14.40
2018-05-06T02:40:11.786Z,14.40
2018-05-06T02:42:40.204Z,14.30
2018-05-06T02:45:07.810Z,14.30
2018-05-06T02:47:35.533Z,14.20
2018-05-06T02:50:03.431Z,14.20
2018-05-06T02:52:31.051Z,14.20
2018-05-06T02:54:58.708Z,14.10
2018-05-06T02:57:26.319Z,14.10
2018-05-06T02:59:53.960Z,14.10
2018-05-06T03:02:21.587Z,14.10
2018-05-06T03:04:49.240Z,14.00
2018-05-06T03:07:16.854Z,14.00
2018-05-06T03:09:44.502Z,14.00
2018-05-06T03:12:12.126Z,13.90
2018-05-06T03:14:39.763Z,13.90
2018-05-06T03:17:08.202Z,13.80
2018-05-06T03:19:35.833Z,13.80
2018-05-06T03:22:03.450Z,13.80
2018-05-06T03:24:32.604Z,13.80
2018-05-06T03:27:01.219Z,13.80
2018-05-06T03:29:28.886Z,13.80
2018-05-06T03:31:56.507Z,13.80
2018-05-06T03:34:24.141Z,13.80
2018-05-06T03:36:52.529Z,13.70
2018-05-06T03:39:20.172Z,13.60
2018-05-06T03:41:48.554Z,13.70
2018-05-06T03:44:16.969Z,13.70
2018-05-06T03:46:44.577Z,13.60
2018-05-06T03:49:12.418Z,13.70
2018-05-06T03:51:40.035Z,13.70
2018-05-06T03:54:08.427Z,13.70
2018-05-06T03:59:46.703Z,13.70
2018-05-06T04:05:08.944Z,13.60
2018-05-06T04:07:36.527Z,13.60
2018-05-06T04:10:04.146Z,13.60
2018-05-06T04:12:31.730Z,13.60
2018-05-06T04:14:59.310Z,13.60
2018-05-06T04:17:27.691Z,13.60
2018-05-06T04:19:55.286Z,13.50
2018-05-06T04:22:23.667Z,13.50
2018-05-06T04:24:51.286Z,13.40
2018-05-06T04:27:18.892Z,13.40
2018-05-06T04:29:46.484Z,13.40
2018-05-06T04:32:14.091Z,13.30
2018-05-06T04:34:42.447Z,13.30
2018-05-06T04:37:10.077Z,13.20
2018-05-06T04:39:37.685Z,13.30
2018-05-06T04:42:05.274Z,13.30
2018-05-06T04:44:32.895Z,13.30
2018-05-06T04:47:00.478Z,13.30
2018-05-06T04:49:28.854Z,13.30
2018-05-06T04:51:57.202Z,13.30
2018-05-06T04:54:24.818Z,13.20
2018-05-06T04:56:52.403Z,13.30
2018-05-06T04:59:20.014Z,13.30
2018-05-06T05:01:48.365Z,13.40
2018-05-06T05:04:15.973Z,13.40
2018-05-06T05:06:43.559Z,13.40
2018-05-06T05:09:11.165Z,13.50
2018-05-06T05:11:38.758Z,13.50
2018-05-06T05:14:06.456Z,13.60
2018-05-06T05:16:34.076Z,13.60
2018-05-06T05:19:01.679Z,13.70
2018-05-06T05:21:29.290Z,13.70
2018-05-06T05:23:57.645Z,13.80
2018-05-06T05:26:25.262Z,13.80
2018-05-06T05:28:52.851Z,13.90
2018-05-06T05:31:20.481Z,13.90
2018-05-06T05:33:48.067Z,14.00
2018-05-06T05:36:15.687Z,14.10
2018-05-06T05:38:43.270Z,14.20
2018-05-06T05:41:10.891Z,14.30
2018-05-06T05:43:39.254Z,14.40
2018-05-06T05:46:06.866Z,14.40
2018-05-06T05:48:34.455Z,14.60
2018-05-06T05:51:02.094Z,14.70
2018-05-06T05:53:29.691Z,14.80
2018-05-06T05:55:58.052Z,15.00
2018-05-06T05:58:25.675Z,15.00
2018-05-06T06:00:53.266Z,15.10
2018-05-06T06:03:20.874Z,15.20
2018-05-06T06:05:49.222Z,15.40
2018-05-06T06:08:16.830Z,15.40
2018-05-06T06:10:44.423Z,15.50
2018-05-06T06:13:12.050Z,15.60
2018-05-06T06:15:39.811Z,15.80
2018-05-06T06:18:07.302Z,15.90
2018-05-06T06:20:34.891Z,16.00
2018-05-06T06:23:02.495Z,16.10
2018-05-06T06:25:30.106Z,16.20
2018-05-06T06:27:58.463Z,16.40
2018-05-06T06:30:26.082Z,16.40
2018-05-06T06:32:54.504Z,16.50
2018-05-06T06:35:22.095Z,16.50
2018-05-06T06:37:49.690Z,16.60
2018-05-06T06:40:17.282Z,16.60
2018-05-06T06:42:44.906Z,16.70
2018-05-06T06:45:13.256Z,16.80
2018-05-06T06:47:40.907Z,16.80
2018-05-06T06:50:08.498Z,17.00
2018-05-06T06:52:36.871Z,17.20
2018-05-06T06:55:05.250Z,17.40
2018-05-06T06:57:33.606Z,17.50
2018-05-06T07:00:01.232Z,17.50
2018-05-06T07:02:28.829Z,17.70
2018-05-06T07:04:57.253Z,18.00
2018-05-06T07:07:24.855Z,17.90
2018-05-06T07:09:52.462Z,18.10
2018-05-06T07:12:20.819Z,18.40
2018-05-06T07:14:49.217Z,18.70
2018-05-06T07:17:17.641Z,18.90
2018-05-06T07:19:45.230Z,18.80
2018-05-06T07:22:12.846Z,19.00
2018-05-06T07:24:40.440Z,19.10
2018-05-06T07:27:08.062Z,19.20
2018-05-06T07:29:35.655Z,19.30
2018-05-06T07:32:03.265Z,19.40
2018-05-06T07:34:31.617Z,19.60
2018-05-06T07:36:59.238Z,19.50
2018-05-06T07:39:26.828Z,19.60
2018-05-06T07:41:54.465Z,19.60
2018-05-06T07:44:22.078Z,19.70
2018-05-06T07:46:50.435Z,20.00
2018-05-06T07:49:18.059Z,20.00
2018-05-06T07:51:45.726Z,20.10
2018-05-06T07:54:13.325Z,20.20
2018-05-06T07:56:40.940Z,20.30
2018-05-06T07:59:08.610Z,20.30
2018-05-06T08:01:37.086Z,20.50
2018-05-06T08:04:04.670Z,20.50
2018-05-06T08:06:32.286Z,20.60
2018-05-06T08:08:59.909Z,20.60
2018-05-06T08:11:29.026Z,21.00
2018-05-06T08:13:57.379Z,21.20
2018-05-06T08:16:25.016Z,21.20
2018-05-06T08:18:52.603Z,21.40
2018-05-06T08:21:20.230Z,21.70
2018-05-06T08:23:47.814Z,21.90
2018-05-06T08:26:16.951Z,22.20
2018-05-06T08:28:44.564Z,22.20
2018-05-06T08:31:12.238Z,22.40
2018-05-06T08:33:39.806Z,22.50
2018-05-06T08:36:07.399Z,22.60
2018-05-06T08:38:34.992Z,22.70
2018-05-06T08:41:02.599Z,22.80
2018-05-06T08:43:30.958Z,23.20
2018-05-06T08:45:58.566Z,23.20
2018-05-06T08:48:26.163Z,23.40
2018-05-06T08:50:53.786Z,23.40
2018-05-06T08:53:21.379Z,23.50
2018-05-06T08:55:48.974Z,23.60
2018-05-06T08:58:17.362Z,23.70
2018-05-06T09:00:45.780Z,23.80
2018-05-06T09:03:13.403Z,23.80
2018-05-06T09:05:41.759Z,24.00
2018-05-06T09:08:09.374Z,24.00
2018-05-06T09:10:36.979Z,24.20
2018-05-06T09:13:05.366Z,24.40
2018-05-06T09:15:32.959Z,24.30
2018-05-06T09:18:00.571Z,24.50
2018-05-06T09:20:28.430Z,24.60
2018-05-06T09:22:56.051Z,24.70
2018-05-06T09:25:23.741Z,24.70
2018-05-06T09:27:51.250Z,24.80
2018-05-06T09:30:19.633Z,25.00
2018-05-06T09:32:47.989Z,25.00
2018-05-06T09:35:15.644Z,25.00
2018-05-06T09:37:43.298Z,25.00
2018-05-06T09:40:10.930Z,25.10
2018-05-06T09:42:38.522Z,25.20
2018-05-06T09:45:06.138Z,25.30
2018-05-06T09:47:33.737Z,25.40
2018-05-06T09:50:01.386Z,25.40
2018-05-06T09:52:28.970Z,25.60
2018-05-06T09:54:57.326Z,25.80
2018-05-06T09:57:24.938Z,25.70
2018-05-06T09:59:53.288Z,25.90
2018-05-06T10:02:20.920Z,25.90
2018-05-06T10:04:48.515Z,26.00
2018-05-06T10:07:16.436Z,26.00
2018-05-06T10:09:44.019Z,26.20
2018-05-06T10:12:11.631Z,26.20
2018-05-06T10:14:39.985Z,26.40
2018-05-06T10:17:07.610Z,26.30
2018-05-06T10:19:35.201Z,26.50
2018-05-06T10:22:02.791Z,26.60
2018-05-06T10:24:31.173Z,26.90
2018-05-06T10:26:58.766Z,26.80
2018-05-06T10:29:26.406Z,26.90
2018-05-06T10:31:54.007Z,27.00
2018-05-06T10:34:21.636Z,27.10
2018-05-06T10:36:49.233Z,27.20
2018-05-06T10:39:16.825Z,27.30
2018-05-06T10:41:45.264Z,27.40
2018-05-06T10:44:13.769Z,27.40
2018-05-06T10:46:41.329Z,27.40
2018-05-06T10:49:09.029Z,27.50
2018-05-06T10:51:36.568Z,27.50
2018-05-06T10:54:04.186Z,27.70
2018-05-06T10:56:31.798Z,27.70
2018-05-06T10:59:00.155Z,27.90
2018-05-06T11:01:27.766Z,27.80
2018-05-06T11:03:55.383Z,28.00
2018-05-06T11:06:23.783Z,28.20
2018-05-06T11:08:51.380Z,28.20
2018-05-06T11:11:18.990Z,28.20
2018-05-06T11:13:47.355Z,28.30
2018-05-06T11:16:14.970Z,28.30
2018-05-06T11:18:42.558Z,28.40
2018-05-06T11:21:10.170Z,28.50
2018-05-06T11:23:37.755Z,28.60
2018-05-06T11:26:05.387Z,28.60
2018-05-06T11:28:32.975Z,28.60
2018-05-06T11:31:00.594Z,28.70
2018-05-06T11:33:29.006Z,28.80
2018-05-06T11:35:56.605Z,28.70
2018-05-06T11:38:24.214Z,28.80
2018-05-06T11:40:51.948Z,28.80
2018-05-06T11:43:20.338Z,29.00
2018-05-06T11:45:48.691Z,29.10
2018-05-06T11:48:16.302Z,29.10
2018-05-06T11:50:43.892Z,29.20
2018-05-06T11:53:11.501Z,29.20
2018-05-06T11:55:39.855Z,29.50
2018-05-06T11:58:07.471Z,29.40
2018-05-06T12:00:35.057Z,29.50
2018-05-06T12:03:02.661Z,29.70
2018-05-06T12:05:31.014Z,29.60
2018-05-06T12:07:58.640Z,29.50
2018-05-06T12:10:26.225Z,29.60
2018-05-06T12:12:53.822Z,29.70
2018-05-06T12:15:22.201Z,29.70
2018-05-06T12:17:50.560Z,29.60
2018-05-06T12:20:18.182Z,29.60
2018-05-06T12:22:45.771Z,29.60
2018-05-06T12:25:13.360Z,29.60
2018-05-06T12:27:41.746Z,29.80
2018-05-06T12:30:09.335Z,29.70
2018-05-06T12:32:36.951Z,29.80
2018-05-06T12:35:05.303Z,29.90
2018-05-06T12:37:33.884Z,29.90
2018-05-06T12:40:01.487Z,29.80
2018-05-06T12:42:29.874Z,29.80
2018-05-06T12:44:57.702Z,29.80
2018-05-06T12:47:25.322Z,29.80
2018-05-06T12:49:52.921Z,29.80
2018-05-06T12:52:20.515Z,29.90
2018-05-06T12:54:48.134Z,29.90
2018-05-06T12:57:15.721Z,29.90
2018-05-06T12:59:44.107Z,30.00
2018-05-06T13:02:12.463Z,30.00
2018-05-06T13:04:40.050Z,30.00
2018-05-06T13:07:08.430Z,30.00
2018-05-06T13:09:36.782Z,30.00
2018-05-06T13:12:04.397Z,30.00
2018-05-06T13:14:31.987Z,30.00
2018-05-06T13:16:59.612Z,30.00
2018-05-06T13:19:27.202Z,30.00
2018-05-06T13:21:54.795Z,29.90
2018-05-06T13:24:23.175Z,29.90
2018-05-06T13:26:51.522Z,29.90
2018-05-06T13:29:19.147Z,29.90
2018-05-06T13:31:46.743Z,29.90
2018-05-06T13:34:14.381Z,29.80
2018-05-06T13:36:42.034Z,29.80
2018-05-06T13:39:09.618Z,29.70
2018-05-06T13:41:37.202Z,29.70
2018-05-06T13:44:04.827Z,29.70
2018-05-06T13:46:32.438Z,29.70
2018-05-06T13:49:00.794Z,29.70
2018-05-06T13:51:28.401Z,29.70
2018-05-06T13:53:55.990Z,29.80
2018-05-06T13:56:23.611Z,29.70
2018-05-06T13:58:51.963Z,29.70
2018-05-06T14:01:19.586Z,29.60
2018-05-06T14:03:47.174Z,29.70
2018-05-06T14:06:14.799Z,29.60
2018-05-06T14:08:42.401Z,29.50
2018-05-06T14:11:10.799Z,29.40
2018-05-06T14:13:39.192Z,29.40
2018-05-06T14:16:07.551Z,29.30
2018-05-06T14:18:35.157Z,29.30
2018-05-06T14:21:02.755Z,29.10
2018-05-06T14:23:30.389Z,29.10
2018-05-06T14:25:57.977Z,28.90
2018-05-06T14:28:25.580Z,28.90
2018-05-06T14:30:53.204Z,28.80
2018-05-06T14:33:20.788Z,28.70
2018-05-06T14:35:49.174Z,28.70
2018-05-06T14:38:17.528Z,28.60
2018-05-06T14:40:45.155Z,28.60
2018-05-06T14:43:12.742Z,28.60
2018-05-06T14:45:40.363Z,28.50
2018-05-06T14:48:15.782Z,28.50
2018-05-06T14:50:43.397Z,28.40
2018-05-06T14:53:10.982Z,28.40
2018-05-06T14:55:39.338Z,28.20
2018-05-06T14:58:06.947Z,28.20
2018-05-06T15:00:34.566Z,28.10
2018-05-06T15:03:02.153Z,28.00
2018-05-06T15:05:30.515Z,27.90
2018-05-06T15:07:58.894Z,27.90
2018-05-06T15:10:26.556Z,27.80
2018-05-06T15:12:54.126Z,27.80
2018-05-06T15:15:22.482Z,27.50
2018-05-06T15:17:50.066Z,27.50
2018-05-06T15:20:17.706Z,27.50
2018-05-06T15:22:45.295Z,27.50
2018-05-06T15:25:13.683Z,27.30
2018-05-06T15:27:41.273Z,27.30
2018-05-06T15:30:08.885Z,27.30
2018-05-06T15:32:37.238Z,27.10
2018-05-06T15:35:04.858Z,27.00
2018-05-06T15:37:32.457Z,27.00
2018-05-06T15:40:00.055Z,27.00
2018-05-06T15:42:28.455Z,26.80
2018-05-06T15:44:56.140Z,26.80
2018-05-06T15:47:23.760Z,26.70
2018-05-06T15:49:52.119Z,26.60
2018-05-06T15:52:19.738Z,26.50
2018-05-06T15:54:47.328Z,26.50
2018-05-06T15:57:14.937Z,26.50
2018-05-06T15:59:42.542Z,26.50
2018-05-06T16:05:12.898Z,26.30
2018-05-06T16:07:40.535Z,26.30
2018-05-06T16:10:08.127Z,26.30
2018-05-06T16:12:35.717Z,26.20
2018-05-06T16:15:03.345Z,26.20
2018-05-06T16:17:30.933Z,26.20
2018-05-06T16:19:58.542Z,26.20
2018-05-06T16:22:26.274Z,26.10
2018-05-06T16:24:53.866Z,26.10
2018-05-06T16:27:21.479Z,26.10
2018-05-06T16:29:49.081Z,26.00
2018-05-06T16:32:16.690Z,25.90
2018-05-06T16:34:45.051Z,25.80
2018-05-06T16:37:12.671Z,25.80
2018-05-06T16:39:40.380Z,25.80
2018-05-06T16:42:08.167Z,25.80
2018-05-06T16:44:35.767Z,25.80
2018-05-06T16:47:03.406Z,25.80
2018-05-06T16:49:30.997Z,25.80
2018-05-06T16:51:58.591Z,25.80
2018-05-06T16:54:26.971Z,25.80
2018-05-06T16:56:55.327Z,25.70
2018-05-06T16:59:22.941Z,25.70
2018-05-06T17:01:50.529Z,25.70
2018-05-06T17:04:18.148Z,25.70
2018-05-06T17:06:46.566Z,25.60
2018-05-06T17:09:14.186Z,25.60
2018-05-06T17:11:42.538Z,25.60
2018-05-06T17:14:10.169Z,25.50
2018-05-06T17:16:37.751Z,25.50
2018-05-06T17:19:05.334Z,25.50
2018-05-06T17:21:33.720Z,25.50
2018-05-06T17:24:02.090Z,25.50
2018-05-06T17:26:30.471Z,25.50
2018-05-06T17:28:58.902Z,25.40
2018-05-06T17:31:26.528Z,25.40
2018-05-06T17:33:54.119Z,25.40
2018-05-06T17:36:21.747Z,25.40
2018-05-06T17:38:50.103Z,25.40
2018-05-06T17:41:17.719Z,25.30
2018-05-06T17:43:45.311Z,25.40
2018-05-06T17:46:12.927Z,25.30
2018-05-06T17:48:40.517Z,25.20
2018-05-06T17:51:08.134Z,25.20
2018-05-06T17:53:35.727Z,25.20
2018-05-06T17:56:03.375Z,25.10
2018-05-06T17:58:30.962Z,25.00
2018-05-06T18:00:58.558Z,25.00
2018-05-06T18:03:26.942Z,24.90
2018-05-06T18:05:55.373Z,24.90
2018-05-06T18:08:23.133Z,24.90
2018-05-06T18:10:50.739Z,24.90
2018-05-06T18:13:19.162Z,24.80
2018-05-06T18:15:46.746Z,24.80
2018-05-06T18:18:14.378Z,24.80
2018-05-06T18:20:41.982Z,24.70
2018-05-06T18:23:09.577Z,24.60
2018-05-06T18:25:37.955Z,24.60
2018-05-06T18:28:06.306Z,24.60
2018-05-06T18:30:33.928Z,24.50
2018-05-06T18:33:01.595Z,24.50
2018-05-06T18:35:29.213Z,24.50
2018-05-06T18:37:57.562Z,24.40
2018-05-06T18:40:25.182Z,24.30
2018-05-06T18:42:52.770Z,24.30
2018-05-06T18:45:20.393Z,24.30
2018-05-06T18:47:47.982Z,24.20
2018-05-06T18:50:15.590Z,24.20
2018-05-06T18:52:43.938Z,24.10
2018-05-06T18:55:13.058Z,24.00
2018-05-06T18:57:41.410Z,24.00
2018-05-06T19:00:09.003Z,24.00
2018-05-06T19:02:37.450Z,24.00
2018-05-06T19:05:05.004Z,23.90
2018-05-06T19:07:32.805Z,24.00
2018-05-06T19:10:01.162Z,23.90
2018-05-06T19:12:28.781Z,23.80
2018-05-06T19:14:56.490Z,23.80
2018-05-06T19:17:24.102Z,23.80
2018-05-06T19:19:51.780Z,23.80
2018-05-06T19:22:19.404Z,23.70
2018-05-06T19:24:47.758Z,23.60
2018-05-06T19:27:15.354Z,23.60
2018-05-06T19:29:42.987Z,23.60
2018-05-06T19:32:11.345Z,23.60
2018-05-06T19:34:38.969Z,23.50
2018-05-06T19:37:06.558Z,23.50
2018-05-06T19:39:34.171Z,23.50
2018-05-06T19:42:01.759Z,23.50
2018-05-06T19:44:29.372Z,23.40
2018-05-06T19:46:57.827Z,23.30
2018-05-06T19:49:25.492Z,23.30
2018-05-06T19:51:53.066Z,23.30
2018-05-06T19:54:21.459Z,23.20
2018-05-06T19:56:49.810Z,23.20
2018-05-06T19:59:18.190Z,23.10
2018-05-06T20:01:45.775Z,23.00
2018-05-06T20:04:14.171Z,22.90
2018-05-06T20:06:41.759Z,22.80
2018-05-06T20:09:09.379Z,22.80
2018-05-06T20:11:37.737Z,22.70
2018-05-06T20:14:05.329Z,22.60
2018-05-06T20:16:32.953Z,22.60
2018-05-06T20:19:00.584Z,22.60
2018-05-06T20:21:28.234Z,22.60
2018-05-06T20:23:55.811Z,22.50
2018-05-06T20:26:23.427Z,22.50
2018-05-06T20:28:51.778Z,22.40
2018-05-06T20:31:19.402Z,22.30
2018-05-06T20:33:47.073Z,22.30
2018-05-06T20:36:14.774Z,22.30
2018-05-06T20:38:42.379Z,22.20
2018-05-06T20:41:12.197Z,22.20
2018-05-06T20:43:39.796Z,22.10
2018-05-06T20:46:07.436Z,22.10
2018-05-06T20:48:35.023Z,22.00
2018-05-06T20:51:02.654Z,22.00
2018-05-06T20:53:30.247Z,21.90
2018-05-06T20:55:57.859Z,21.90
2018-05-06T20:58:25.447Z,21.90
2018-05-06T21:00:53.067Z,21.80
2018-05-06T21:03:20.656Z,21.80
2018-05-06T21:05:48.243Z,21.80
2018-05-06T21:08:15.853Z,21.70
2018-05-06T21:10:43.446Z,21.70
2018-05-06T21:13:11.086Z,21.70
2018-05-06T21:15:38.754Z,21.60
2018-05-06T21:18:06.377Z,21.60
2018-05-06T21:20:34.722Z,21.60
2018-05-06T21:23:03.084Z,21.50
2018-05-06T21:25:30.735Z,21.50
2018-05-06T21:27:58.433Z,21.60
2018-05-06T21:30:26.012Z,21.60
2018-05-06T21:32:54.599Z,21.50
2018-05-06T21:35:22.983Z,21.50
2018-05-06T21:37:50.572Z,21.40
2018-05-06T21:40:18.260Z,21.50
2018-05-06T21:42:45.810Z,21.40
2018-05-06T21:45:13.422Z,21.40
2018-05-06T21:47:41.780Z,21.30
2018-05-06T21:50:09.403Z,21.30
2018-05-06T21:52:36.997Z,21.30
2018-05-06T21:55:04.620Z,21.20
2018-05-06T21:57:32.213Z,21.20
2018-05-06T21:59:59.843Z,21.20
2018-05-06T22:02:27.438Z,21.10
2018-05-06T22:04:55.030Z,21.10
2018-05-06T22:07:22.699Z,21.10
2018-05-06T22:09:50.258Z,21.10
2018-05-06T22:12:17.883Z,21.00
2018-05-06T22:14:45.478Z,21.00
2018-05-06T22:17:13.082Z,21.00
2018-05-06T22:19:40.666Z,21.00
2018-05-06T22:22:09.047Z,20.90
2018-05-06T22:24:37.402Z,20.80
2018-05-06T22:27:05.016Z,20.80
2018-05-06T22:29:32.607Z,20.80
2018-05-06T22:32:00.269Z,20.70
2018-05-06T22:34:27.850Z,20.70
2018-05-06T22:36:55.457Z,20.70
2018-05-06T22:39:23.059Z,20.70
2018-05-06T22:41:50.674Z,20.70
2018-05-06T22:44:19.067Z,20.60
2018-05-06T22:46:46.694Z,20.50
2018-05-06T22:49:14.317Z,20.60
2018-05-06T22:51:41.967Z,20.60
2018-05-06T22:54:09.562Z,20.50
2018-05-06T22:56:37.169Z,20.50
2018-05-06T22:59:04.899Z,20.50
2018-05-06T23:01:33.273Z,20.40
2018-05-06T23:04:00.874Z,20.40
2018-05-06T23:06:28.466Z,20.40
2018-05-06T23:08:56.082Z,20.40
2018-05-06T23:11:24.437Z,20.30
2018-05-06T23:13:52.830Z,20.30
2018-05-06T23:16:21.239Z,20.20
2018-05-06T23:18:49.595Z,20.20
2018-05-06T23:21:17.941Z,20.20
2018-05-06T23:23:45.623Z,20.10
2018-05-06T23:26:13.185Z,20.20
2018-05-06T23:28:41.762Z,20.10
2018-05-06T23:31:09.351Z,20.10
2018-05-06T23:33:37.086Z,20.10
2018-05-06T23:36:05.476Z,20.00
2018-05-06T23:38:33.831Z,20.00
2018-05-06T23:41:01.452Z,19.90
2018-05-06T23:43:29.037Z,19.90
2018-05-06T23:45:57.430Z,19.90
2018-05-06T23:48:25.014Z,19.80
2018-05-06T23:50:53.370Z,19.80
2018-05-06T23:53:21.750Z,19.80
2018-05-06T23:55:49.340Z,19.70
2018-05-06T23:58:17.854Z,19.70
